9VS YBSU-YBCG
Flight info
| Callsign | 9VS |
|---|---|
| Flight time | 0h 48m |
| Altitude | 19000 |
| Route | SU Q35 MUDDL DCT IDRIL DCT NOPAS DCT GOMOL |
| Aircraft | TBM9/L-SDFGRWY/S |
Departure
| Time | 2026-04-20 12:39 |
|---|---|
| Airport | Sunshine Coast Airport (YBSU) |
Arrival
| Time | 2026-04-20 13:27 |
|---|---|
| Airport | Gold Coast Airport (YBCG) |
| Time | Latitude | Longitude | Altitude | Speed | Heading |
|---|---|---|---|---|---|
| 2026-04-20 12:20 | -26.60129 | 153.08472 | 101 ft | 0 kts | 228° |
| 2026-04-20 12:32 | -26.60142 | 153.08479 | 19 ft | 8 kts | 97° |
| 2026-04-20 12:32 | -26.60169 | 153.08529 | 19 ft | 8 kts | 66° |
| 2026-04-20 12:33 | -26.60123 | 153.08566 | 19 ft | 10 kts | 34° |
| 2026-04-20 12:33 | -26.60071 | 153.08614 | 19 ft | 10 kts | 40° |
| 2026-04-20 12:33 | -26.60039 | 153.08649 | 19 ft | 0 kts | 47° |
| 2026-04-20 12:34 | -26.60038 | 153.08651 | 19 ft | 5 kts | 47° |
| 2026-04-20 12:34 | -26.60055 | 153.08710 | 19 ft | 11 kts | 142° |
| 2026-04-20 12:34 | -26.60121 | 153.08766 | 20 ft | 12 kts | 142° |
| 2026-04-20 12:34 | -26.60137 | 153.08845 | 19 ft | 12 kts | 59° |
| 2026-04-20 12:35 | -26.60073 | 153.08920 | 19 ft | 14 kts | 26° |
| 2026-04-20 12:35 | -26.59988 | 153.08880 | 19 ft | 15 kts | 324° |
| 2026-04-20 12:35 | -26.59899 | 153.08803 | 18 ft | 17 kts | 324° |
| 2026-04-20 12:35 | -26.59800 | 153.08716 | 19 ft | 19 kts | 321° |
| 2026-04-20 12:36 | -26.59689 | 153.08617 | 18 ft | 22 kts | 321° |
| 2026-04-20 12:36 | -26.59563 | 153.08504 | 17 ft | 24 kts | 321° |
| 2026-04-20 12:36 | -26.59423 | 153.08379 | 14 ft | 27 kts | 321° |
| 2026-04-20 12:36 | -26.59266 | 153.08245 | 14 ft | 29 kts | 323° |
| 2026-04-20 12:37 | -26.59096 | 153.08106 | 13 ft | 31 kts | 323° |
| 2026-04-20 12:37 | -26.58922 | 153.07960 | 14 ft | 32 kts | 316° |
| 2026-04-20 12:37 | -26.58844 | 153.07899 | 14 ft | 6 kts | 135° |
| 2026-04-20 12:37 | -26.58916 | 153.07960 | 14 ft | 36 kts | 142° |
| 2026-04-20 12:38 | -26.59293 | 153.08281 | 21 ft | 98 kts | 142° |
| 2026-04-20 12:38 | -26.59862 | 153.08764 | 333 ft | 120 kts | 143° |
| 2026-04-20 12:38 | -26.60638 | 153.09417 | 489 ft | 158 kts | 142° |
| 2026-04-20 12:38 | -26.61605 | 153.10236 | 507 ft | 193 kts | 142° |
| 2026-04-20 12:39 | -26.63912 | 153.12285 | 584 ft | 226 kts | 151° |
| 2026-04-20 12:39 | -26.65449 | 153.12788 | 651 ft | 233 kts | 167° |
| 2026-04-20 12:39 | -26.67059 | 153.13082 | 778 ft | 235 kts | 170° |
| 2026-04-20 12:40 | -26.68673 | 153.13359 | 899 ft | 232 kts | 172° |
| 2026-04-20 12:40 | -26.70281 | 153.13431 | 1026 ft | 231 kts | 178° |
| 2026-04-20 12:40 | -26.71853 | 153.13355 | 1150 ft | 229 kts | 181° |
| 2026-04-20 12:40 | -26.73438 | 153.13193 | 1262 ft | 228 kts | 182° |
| 2026-04-20 12:41 | -26.75015 | 153.13019 | 1386 ft | 227 kts | 180° |
| 2026-04-20 12:41 | -26.76601 | 153.13046 | 1510 ft | 229 kts | 173° |
| 2026-04-20 12:41 | -26.78186 | 153.13192 | 1642 ft | 227 kts | 171° |
| 2026-04-20 12:41 | -26.79767 | 153.13227 | 1755 ft | 230 kts | 185° |
| 2026-04-20 12:42 | -26.81228 | 153.12471 | 1881 ft | 238 kts | 213° |
| 2026-04-20 12:42 | -26.82488 | 153.11235 | 2001 ft | 243 kts | 220° |
| 2026-04-20 12:42 | -26.83745 | 153.09965 | 2126 ft | 243 kts | 213° |
| 2026-04-20 12:42 | -26.85304 | 153.09392 | 2239 ft | 237 kts | 177° |
| 2026-04-20 12:43 | -26.86864 | 153.09925 | 2268 ft | 237 kts | 150° |
| 2026-04-20 12:43 | -26.88266 | 153.10931 | 2269 ft | 240 kts | 144° |
| 2026-04-20 12:43 | -26.89644 | 153.11995 | 2267 ft | 242 kts | 144° |
| 2026-04-20 12:43 | -26.91043 | 153.13055 | 2268 ft | 244 kts | 146° |
| 2026-04-20 12:44 | -26.92436 | 153.14108 | 2267 ft | 239 kts | 146° |
| 2026-04-20 12:44 | -26.93838 | 153.15072 | 2268 ft | 236 kts | 158° |
| 2026-04-20 12:44 | -26.95444 | 153.15462 | 2265 ft | 237 kts | 171° |
| 2026-04-20 12:44 | -26.97073 | 153.15691 | 2265 ft | 236 kts | 169° |
| 2026-04-20 12:45 | -26.98659 | 153.16144 | 2263 ft | 235 kts | 161° |
| 2026-04-20 12:45 | -27.00171 | 153.16767 | 2265 ft | 234 kts | 156° |
| 2026-04-20 12:45 | -27.01634 | 153.17588 | 2262 ft | 236 kts | 152° |
| 2026-04-20 12:45 | -27.03068 | 153.18472 | 2266 ft | 235 kts | 151° |
| 2026-04-20 12:46 | -27.04499 | 153.19358 | 2267 ft | 235 kts | 152° |
| 2026-04-20 12:46 | -27.05935 | 153.20239 | 2267 ft | 235 kts | 152° |
| 2026-04-20 12:46 | -27.07375 | 153.21112 | 2258 ft | 235 kts | 153° |
| 2026-04-20 12:46 | -27.08889 | 153.21745 | 2263 ft | 235 kts | 166° |
| 2026-04-20 12:47 | -27.10496 | 153.21635 | 2262 ft | 234 kts | 198° |
| 2026-04-20 12:47 | -27.11747 | 153.20489 | 2264 ft | 238 kts | 231° |
| 2026-04-20 12:47 | -27.12553 | 153.18878 | 2265 ft | 235 kts | 238° |
| 2026-04-20 12:47 | -27.13305 | 153.17256 | 2264 ft | 234 kts | 237° |
| 2026-04-20 12:48 | -27.14102 | 153.15675 | 2263 ft | 231 kts | 230° |
| 2026-04-20 12:48 | -27.15227 | 153.14440 | 2263 ft | 226 kts | 214° |
| 2026-04-20 12:48 | -27.16489 | 153.13357 | 2274 ft | 232 kts | 213° |
| 2026-04-20 12:48 | -27.17787 | 153.12226 | 2284 ft | 240 kts | 215° |
| 2026-04-20 12:49 | -27.19113 | 153.11035 | 2278 ft | 246 kts | 216° |
| 2026-04-20 12:49 | -27.20470 | 153.09851 | 2284 ft | 247 kts | 211° |
| 2026-04-20 12:49 | -27.21987 | 153.08962 | 2278 ft | 246 kts | 200° |
| 2026-04-20 12:49 | -27.23623 | 153.08394 | 2277 ft | 245 kts | 188° |
| 2026-04-20 12:50 | -27.25310 | 153.08143 | 2280 ft | 244 kts | 183° |
| 2026-04-20 12:50 | -27.26984 | 153.07778 | 2285 ft | 248 kts | 195° |
| 2026-04-20 12:50 | -27.28477 | 153.06843 | 2283 ft | 252 kts | 213° |
| 2026-04-20 12:50 | -27.29851 | 153.05613 | 2283 ft | 252 kts | 217° |
| 2026-04-20 12:51 | -27.31209 | 153.04359 | 2280 ft | 252 kts | 216° |
| 2026-04-20 12:51 | -27.32572 | 153.03127 | 2285 ft | 252 kts | 215° |
| 2026-04-20 12:51 | -27.34020 | 153.02062 | 2272 ft | 246 kts | 197° |
| 2026-04-20 12:51 | -27.35679 | 153.01845 | 2270 ft | 236 kts | 178° |
| 2026-04-20 12:52 | -27.37255 | 153.01885 | 2268 ft | 213 kts | 178° |
| 2026-04-20 12:52 | -27.38677 | 153.01853 | 2273 ft | 198 kts | 180° |
| 2026-04-20 12:52 | -27.40030 | 153.01764 | 2272 ft | 192 kts | 181° |
| 2026-04-20 12:52 | -27.41343 | 153.01665 | 2267 ft | 185 kts | 181° |
| 2026-04-20 12:53 | -27.42613 | 153.01568 | 2266 ft | 180 kts | 181° |
| 2026-04-20 12:53 | -27.43842 | 153.01563 | 2263 ft | 175 kts | 166° |
| 2026-04-20 12:53 | -27.44841 | 153.02277 | 2267 ft | 173 kts | 127° |
| 2026-04-20 12:53 | -27.45158 | 153.03568 | 2267 ft | 179 kts | 88° |
| 2026-04-20 12:54 | -27.44596 | 153.04828 | 2271 ft | 188 kts | 48° |
| 2026-04-20 12:54 | -27.43775 | 153.05919 | 2271 ft | 182 kts | 72° |
| 2026-04-20 12:54 | -27.43587 | 153.07287 | 2269 ft | 177 kts | 84° |
| 2026-04-20 12:54 | -27.42967 | 153.08485 | 2276 ft | 185 kts | 43° |
| 2026-04-20 12:55 | -27.41779 | 153.09043 | 2277 ft | 187 kts | 16° |
| 2026-04-20 12:55 | -27.40513 | 153.09367 | 2276 ft | 184 kts | 21° |
| 2026-04-20 12:55 | -27.39322 | 153.09887 | 2280 ft | 183 kts | 27° |
| 2026-04-20 12:55 | -27.38152 | 153.10440 | 2277 ft | 183 kts | 26° |
| 2026-04-20 12:56 | -27.36973 | 153.10991 | 2276 ft | 183 kts | 26° |
| 2026-04-20 12:56 | -27.35799 | 153.11532 | 2274 ft | 182 kts | 26° |
| 2026-04-20 12:56 | -27.34659 | 153.12146 | 2278 ft | 181 kts | 31° |
| 2026-04-20 12:56 | -27.33498 | 153.12664 | 2281 ft | 183 kts | 12° |
| 2026-04-20 12:57 | -27.32255 | 153.12379 | 2281 ft | 188 kts | 330° |
| 2026-04-20 12:57 | -27.31443 | 153.11248 | 2277 ft | 189 kts | 287° |
| 2026-04-20 12:57 | -27.31476 | 153.09827 | 2279 ft | 182 kts | 244° |
| 2026-04-20 12:57 | -27.32292 | 153.08818 | 2277 ft | 174 kts | 207° |
| 2026-04-20 12:58 | -27.33345 | 153.08154 | 2284 ft | 173 kts | 204° |
| 2026-04-20 12:58 | -27.34384 | 153.07510 | 2286 ft | 173 kts | 204° |
| 2026-04-20 12:58 | -27.35435 | 153.06851 | 2282 ft | 172 kts | 205° |
| 2026-04-20 12:58 | -27.36493 | 153.06192 | 2134 ft | 176 kts | 205° |
| 2026-04-20 12:59 | -27.37586 | 153.05519 | 1988 ft | 179 kts | 204° |
| 2026-04-20 12:59 | -27.38684 | 153.04836 | 1845 ft | 182 kts | 205° |
| 2026-04-20 12:59 | -27.39792 | 153.04144 | 1695 ft | 182 kts | 205° |
| 2026-04-20 12:59 | -27.40904 | 153.03451 | 1550 ft | 183 kts | 205° |
| 2026-04-20 13:00 | -27.42096 | 153.03086 | 1400 ft | 177 kts | 174° |
| 2026-04-20 13:00 | -27.43179 | 153.03622 | 1251 ft | 167 kts | 134° |
| 2026-04-20 13:00 | -27.43580 | 153.04771 | 1166 ft | 157 kts | 89° |
| 2026-04-20 13:00 | -27.43102 | 153.05824 | 1163 ft | 154 kts | 49° |
| 2026-04-20 13:01 | -27.42487 | 153.06782 | 1158 ft | 150 kts | 64° |
| 2026-04-20 13:01 | -27.41990 | 153.07805 | 1157 ft | 148 kts | 63° |
| 2026-04-20 13:01 | -27.41258 | 153.08622 | 1158 ft | 152 kts | 43° |
| 2026-04-20 13:01 | -27.40436 | 153.09365 | 1157 ft | 153 kts | 38° |
| 2026-04-20 13:02 | -27.39506 | 153.09975 | 1156 ft | 156 kts | 28° |
| 2026-04-20 13:02 | -27.38506 | 153.10455 | 1159 ft | 156 kts | 27° |
| 2026-04-20 13:02 | -27.37502 | 153.10937 | 1159 ft | 156 kts | 28° |
| 2026-04-20 13:02 | -27.36495 | 153.11407 | 1158 ft | 157 kts | 27° |
| 2026-04-20 13:03 | -27.35507 | 153.11901 | 1158 ft | 153 kts | 40° |
| 2026-04-20 13:03 | -27.34980 | 153.12856 | 1160 ft | 144 kts | 86° |
| 2026-04-20 13:03 | -27.35255 | 153.13915 | 1176 ft | 154 kts | 121° |
| 2026-04-20 13:03 | -27.35838 | 153.15095 | 1182 ft | 188 kts | 122° |
| 2026-04-20 13:04 | -27.36505 | 153.16459 | 1180 ft | 208 kts | 121° |
| 2026-04-20 13:04 | -27.37224 | 153.17912 | 1285 ft | 213 kts | 121° |
| 2026-04-20 13:04 | -27.37946 | 153.19356 | 1547 ft | 210 kts | 121° |
| 2026-04-20 13:04 | -27.38632 | 153.20779 | 1800 ft | 208 kts | 120° |
| 2026-04-20 13:05 | -27.39306 | 153.22225 | 2052 ft | 208 kts | 120° |
| 2026-04-20 13:05 | -27.39965 | 153.23672 | 2302 ft | 208 kts | 120° |
| 2026-04-20 13:05 | -27.40626 | 153.25122 | 2553 ft | 209 kts | 120° |
| 2026-04-20 13:05 | -27.41288 | 153.26580 | 2800 ft | 210 kts | 120° |
| 2026-04-20 13:06 | -27.41955 | 153.28050 | 3047 ft | 211 kts | 120° |
| 2026-04-20 13:06 | -27.42632 | 153.29545 | 3161 ft | 218 kts | 120° |
| 2026-04-20 13:06 | -27.43339 | 153.31092 | 3163 ft | 225 kts | 121° |
| 2026-04-20 13:06 | -27.44054 | 153.32660 | 3167 ft | 229 kts | 121° |
| 2026-04-20 13:07 | -27.44782 | 153.34268 | 3170 ft | 232 kts | 120° |
| 2026-04-20 13:07 | -27.45516 | 153.35894 | 3173 ft | 233 kts | 120° |
| 2026-04-20 13:07 | -27.46252 | 153.37528 | 3174 ft | 234 kts | 120° |
| 2026-04-20 13:07 | -27.46986 | 153.39165 | 3175 ft | 234 kts | 120° |
| 2026-04-20 13:08 | -27.47725 | 153.40803 | 3176 ft | 235 kts | 120° |
| 2026-04-20 13:08 | -27.48465 | 153.42440 | 3176 ft | 235 kts | 120° |
| 2026-04-20 13:08 | -27.48954 | 153.43529 | 3175 ft | 235 kts | 120° |
| 2026-04-20 13:08 | -27.49702 | 153.45149 | 3175 ft | 231 kts | 127° |
| 2026-04-20 13:09 | -27.50740 | 153.46469 | 3174 ft | 222 kts | 149° |
| 2026-04-20 13:09 | -27.52183 | 153.46917 | 3168 ft | 217 kts | 182° |
| 2026-04-20 13:09 | -27.53662 | 153.46591 | 3172 ft | 217 kts | 191° |
| 2026-04-20 13:09 | -27.55152 | 153.46324 | 3176 ft | 217 kts | 181° |
| 2026-04-20 13:10 | -27.56658 | 153.46430 | 3173 ft | 216 kts | 173° |
| 2026-04-20 13:10 | -27.58145 | 153.46642 | 3173 ft | 217 kts | 173° |
| 2026-04-20 13:10 | -27.59656 | 153.46797 | 3182 ft | 219 kts | 176° |
| 2026-04-20 13:10 | -27.61177 | 153.46878 | 3180 ft | 218 kts | 178° |
| 2026-04-20 13:11 | -27.62695 | 153.46934 | 3180 ft | 218 kts | 178° |
| 2026-04-20 13:11 | -27.64213 | 153.47004 | 3180 ft | 219 kts | 176° |
| 2026-04-20 13:11 | -27.65736 | 153.47098 | 3178 ft | 219 kts | 176° |
| 2026-04-20 13:11 | -27.67238 | 153.47214 | 3178 ft | 218 kts | 176° |
| 2026-04-20 13:12 | -27.68755 | 153.47331 | 3178 ft | 218 kts | 176° |
| 2026-04-20 13:12 | -27.70270 | 153.47429 | 3181 ft | 218 kts | 176° |
| 2026-04-20 13:12 | -27.71786 | 153.47518 | 3181 ft | 218 kts | 176° |
| 2026-04-20 13:12 | -27.73307 | 153.47615 | 3179 ft | 219 kts | 176° |
| 2026-04-20 13:13 | -27.74828 | 153.47716 | 3176 ft | 219 kts | 176° |
| 2026-04-20 13:13 | -27.76347 | 153.47818 | 3180 ft | 219 kts | 176° |
| 2026-04-20 13:13 | -27.77876 | 153.47927 | 3177 ft | 221 kts | 176° |
| 2026-04-20 13:13 | -27.79407 | 153.48027 | 3180 ft | 219 kts | 176° |
| 2026-04-20 13:14 | -27.80934 | 153.48119 | 3186 ft | 220 kts | 176° |
| 2026-04-20 13:14 | -27.82461 | 153.48221 | 3186 ft | 220 kts | 176° |
| 2026-04-20 13:14 | -27.83991 | 153.48326 | 3186 ft | 220 kts | 176° |
| 2026-04-20 13:14 | -27.85515 | 153.48424 | 3183 ft | 219 kts | 176° |
| 2026-04-20 13:15 | -27.87034 | 153.48526 | 3184 ft | 219 kts | 176° |
| 2026-04-20 13:15 | -27.88539 | 153.48622 | 3182 ft | 219 kts | 176° |
| 2026-04-20 13:15 | -27.90058 | 153.48724 | 3182 ft | 219 kts | 176° |
| 2026-04-20 13:15 | -27.91581 | 153.48832 | 3185 ft | 219 kts | 176° |
| 2026-04-20 13:16 | -27.93103 | 153.48929 | 3185 ft | 219 kts | 176° |
| 2026-04-20 13:16 | -27.94630 | 153.49028 | 3184 ft | 220 kts | 176° |
| 2026-04-20 13:16 | -27.96155 | 153.49127 | 3183 ft | 219 kts | 176° |
| 2026-04-20 13:16 | -27.97677 | 153.49227 | 3185 ft | 219 kts | 176° |
| 2026-04-20 13:17 | -27.99203 | 153.49329 | 3186 ft | 219 kts | 176° |
| 2026-04-20 13:17 | -28.00722 | 153.49432 | 3185 ft | 219 kts | 177° |
| 2026-04-20 13:17 | -28.02237 | 153.49534 | 3187 ft | 217 kts | 176° |
| 2026-04-20 13:17 | -28.03745 | 153.49627 | 3185 ft | 217 kts | 176° |
| 2026-04-20 13:18 | -28.05257 | 153.49728 | 3184 ft | 218 kts | 176° |
| 2026-04-20 13:18 | -28.06750 | 153.49833 | 3186 ft | 218 kts | 176° |
| 2026-04-20 13:18 | -28.08269 | 153.49932 | 3186 ft | 219 kts | 177° |
| 2026-04-20 13:18 | -28.09790 | 153.50031 | 3190 ft | 219 kts | 176° |
| 2026-04-20 13:19 | -28.11315 | 153.50126 | 3187 ft | 219 kts | 176° |
| 2026-04-20 13:19 | -28.12834 | 153.50227 | 3201 ft | 219 kts | 176° |
| 2026-04-20 13:19 | -28.14364 | 153.50336 | 3033 ft | 224 kts | 176° |
| 2026-04-20 13:19 | -28.15943 | 153.50526 | 2587 ft | 228 kts | 166° |
| 2026-04-20 13:20 | -28.17122 | 153.51485 | 2127 ft | 206 kts | 129° |
| 2026-04-20 13:20 | -28.17631 | 153.52984 | 1664 ft | 205 kts | 106° |
| 2026-04-20 13:20 | -28.17437 | 153.54600 | 1207 ft | 215 kts | 72° |
| 2026-04-20 13:20 | -28.16418 | 153.55849 | 757 ft | 217 kts | 33° |
| 2026-04-20 13:21 | -28.15046 | 153.56151 | 682 ft | 196 kts | 351° |
| 2026-04-20 13:21 | -28.13779 | 153.55754 | 683 ft | 184 kts | 340° |
| 2026-04-20 13:21 | -28.12596 | 153.55241 | 683 ft | 176 kts | 329° |
| 2026-04-20 13:21 | -28.11549 | 153.54591 | 672 ft | 171 kts | 325° |
| 2026-04-20 13:22 | -28.10687 | 153.53717 | 673 ft | 167 kts | 311° |
| 2026-04-20 13:22 | -28.09786 | 153.52826 | 676 ft | 171 kts | 316° |
| 2026-04-20 13:22 | -28.08897 | 153.51963 | 677 ft | 170 kts | 316° |
| 2026-04-20 13:22 | -28.08006 | 153.51118 | 677 ft | 163 kts | 314° |
| 2026-04-20 13:23 | -28.07390 | 153.50110 | 676 ft | 150 kts | 283° |
| 2026-04-20 13:23 | -28.07208 | 153.49023 | 680 ft | 133 kts | 254° |
| 2026-04-20 13:23 | -28.07539 | 153.48089 | 700 ft | 131 kts | 234° |
| 2026-04-20 13:23 | -28.07932 | 153.47113 | 699 ft | 139 kts | 238° |
| 2026-04-20 13:24 | -28.08360 | 153.46129 | 696 ft | 136 kts | 224° |
| 2026-04-20 13:24 | -28.09173 | 153.45718 | 692 ft | 130 kts | 176° |
| 2026-04-20 13:24 | -28.09953 | 153.46205 | 696 ft | 133 kts | 140° |
| 2026-04-20 13:24 | -28.10577 | 153.46946 | 689 ft | 122 kts | 143° |
| 2026-04-20 13:25 | -28.11199 | 153.47401 | 695 ft | 86 kts | 155° |
| 2026-04-20 13:25 | -28.11674 | 153.47668 | 677 ft | 71 kts | 158° |
| 2026-04-20 13:25 | -28.12125 | 153.47921 | 676 ft | 77 kts | 159° |
| 2026-04-20 13:25 | -28.12640 | 153.48211 | 691 ft | 89 kts | 158° |
| 2026-04-20 13:26 | -28.13244 | 153.48539 | 685 ft | 102 kts | 156° |
| 2026-04-20 13:26 | -28.13904 | 153.48926 | 569 ft | 112 kts | 151° |
| 2026-04-20 13:26 | -28.14533 | 153.49432 | 451 ft | 112 kts | 153° |
| 2026-04-20 13:26 | -28.15226 | 153.49888 | 229 ft | 118 kts | 152° |
| 2026-04-20 13:27 | -28.15956 | 153.50307 | 78 ft | 114 kts | 157° |
| 2026-04-20 13:27 | -28.16621 | 153.50683 | 25 ft | 91 kts | 154° |
| 2026-04-20 13:27 | -28.16948 | 153.50883 | 23 ft | 14 kts | 147° |
| 2026-04-20 13:27 | -28.17027 | 153.50945 | 21 ft | 14 kts | 148° |
| 2026-04-20 13:28 | -28.17094 | 153.50971 | 20 ft | 4 kts | 178° |
| 2026-04-20 13:28 | -28.17076 | 153.50978 | 20 ft | 9 kts | 332° |
| 2026-04-20 13:28 | -28.17017 | 153.50942 | 22 ft | 10 kts | 336° |
| 2026-04-20 13:28 | -28.16951 | 153.50954 | 22 ft | 11 kts | 46° |
| 2026-04-20 13:29 | -28.16903 | 153.51036 | 20 ft | 14 kts | 62° |
| 2026-04-20 13:29 | -28.16850 | 153.51140 | 20 ft | 16 kts | 54° |
| 2026-04-20 13:29 | -28.16777 | 153.51217 | 20 ft | 8 kts | 51° |
| 2026-04-20 13:29 | -28.16765 | 153.51249 | 20 ft | 0 kts | 201° |